Soaring Guidance
Issued by NWS Reno, NV

Home | Current Version | Previous Version | Text Only | Print | Product List | Glossary On
Versions: 1 2 3 4 5 6 7 8 9 10 11 12 13 14 15 16
000
UXUS97 KREV 231424
SRGREV

SOARING FORECAST
NATIONAL WEATHER SERVICE - RENO NV
700 AM PDT SUN JUL 23 2017

THIS SOARING FORECAST IS FOR THE EASTERN SIERRA AND WESTERN NEVADA
WITH SPECIFIC INDICES FOR THE GREATER RENO AREA.

THIS FORECAST IS PREPARED DAILY BY 700 AM AND IS NOT UPDATED.

FOR CURRENT FLIGHT CONDITIONS...FORECASTS...AND ADVISORIES...ACCESS
YOUR LOCAL BRIEFING OUTLET OR FLIGHT SERVICE STATION.

*******************************************************************
FORECASTED LOCAL INDICES FOR RENO:        TODAY     YESTERDAY
FORECASTED MAX TEMP AT RENO (DEG F).....    101          99
FORECASTED TRIGGER TEMPERATURE (DEG F)..     87          83
   EXCEEDED YESTERDAY BY 1055 AM PDT
FORECASTED MAXIMUM ALTITUDE (FT MSL)....  18000       17300
FORECASTED SOARING INDEX (FPM)..........   1344        1119
FORECASTED K-INDEX.........VALID 18Z....     23          10
FORECASTED K-INDEX.........VALID 00Z....     28          14
FORECASTED LIFTED INDEX....VALID 18Z....      1           5
FORECASTED LIFTED INDEX....VALID 00Z....     -2           4

AFTERNOON WINDS ALOFT FORECAST
MSL (FT) WIND/TEMP
9000  2906/+21
10000 2806/+18
12000 2805/+12
14000 2207/+05
16000 2010/-01
18000 1917/-07
24000 2025/-19
30000 2137/-37
34000 2143/-44
39000 2148/-51

SLIDE MOUNTAIN DATA:
     DATE       TIME     TEMP  DEWPT   RH         WIND (MPH)
                        (F)   (F)           | DIR  SPEED GUST
2017-07-23    05:20      61    34     24    | 011   15   25
2017-07-23    05:00      61    33     24    | 009   13   25
2017-07-23    04:50      61    34     24    | 006   14   25
2017-07-23    04:30      61    34     24    | 009   15   25

RENO TAF FORECAST:
KRNO 231120Z 2312/2412 VRB03KT P6SM SKC
     FM232100 20005KT P6SM SCT120
     FM232300 26008G15KT P6SM VCSH SCT120

CARSON CITY TAF FORECAST:
KCXP 231120Z 2312/2412 VRB04KT P6SM SKC
     FM232100 19007KT P6SM SCT110
     FM240100 26008G15KT P6SM VCSH SCT110

OUTLOOK FOR THE RENO-CARSON CITY-MINDEN AREA:
.MONDAY...SUNNY IN THE MORNING, THEN PARTLY CLOUDY WITH SCATTERED
SHOWERS AND THUNDERSTORMS IN THE AFTERNOON. HIGHS 90 TO 95. LIGHT
WINDS.

SUNRISE AND SUNSET
JULY 23 2017..........SUNRISE   551 AM PDT   SUNSET   820 PM PDT
JULY 24 2017..........SUNRISE   552 AM PDT   SUNSET   819 PM PDT


USA.gov is the U.S. government's official web portal to all federal, state and local government web resources and services.